sensor_id;sensor_type;location;lat;lon;timestamp;pressure;altitude;pressure_sealevel;temperature;humidity
829;BME280;396;52.558;13.188;2023-05-29T00:00:33;101514.38;;;15.06;75.95
829;BME280;396;52.558;13.188;2023-05-29T00:02:59;101500.97;;;14.96;76.08
829;BME280;396;52.558;13.188;2023-05-29T00:05:26;101512.00;;;14.91;75.87
829;BME280;396;52.558;13.188;2023-05-29T00:07:53;101509.78;;;14.93;75.16
829;BME280;396;52.558;13.188;2023-05-29T00:10:22;101509.69;;;14.84;75.65
829;BME280;396;52.558;13.188;2023-05-29T00:12:48;101506.66;;;14.85;75.32
829;BME280;396;52.558;13.188;2023-05-29T00:15:16;101513.34;;;14.79;75.45
829;BME280;396;52.558;13.188;2023-05-29T00:17:42;101520.31;;;14.72;75.40
829;BME280;396;52.558;13.188;2023-05-29T00:20:10;101517.03;;;14.61;76.23
829;BME280;396;52.558;13.188;2023-05-29T00:22:37;101518.22;;;14.55;76.58
829;BME280;396;52.558;13.188;2023-05-29T00:25:07;101518.44;;;14.58;76.53
829;BME280;396;52.558;13.188;2023-05-29T00:27:35;101518.81;;;14.52;77.08
829;BME280;396;52.558;13.188;2023-05-29T00:30:03;101514.47;;;14.37;77.76
829;BME280;396;52.558;13.188;2023-05-29T00:32:30;101514.25;;;14.33;77.34
829;BME280;396;52.558;13.188;2023-05-29T00:34:56;101524.47;;;14.28;75.90
829;BME280;396;52.558;13.188;2023-05-29T00:37:23;101520.13;;;14.13;74.98
829;BME280;396;52.558;13.188;2023-05-29T00:39:50;101525.69;;;14.08;75.50
829;BME280;396;52.558;13.188;2023-05-29T00:42:16;101519.69;;;13.92;78.01
829;BME280;396;52.558;13.188;2023-05-29T00:44:44;101514.63;;;13.85;78.73
829;BME280;396;52.558;13.188;2023-05-29T00:47:11;101507.06;;;13.69;80.21
829;BME280;396;52.558;13.188;2023-05-29T00:49:38;101517.94;;;13.69;80.34
829;BME280;396;52.558;13.188;2023-05-29T00:52:07;101515.19;;;13.55;80.91
829;BME280;396;52.558;13.188;2023-05-29T00:54:33;101514.97;;;13.32;82.16
829;BME280;396;52.558;13.188;2023-05-29T00:57:02;101523.16;;;13.32;82.40
829;BME280;396;52.558;13.188;2023-05-29T00:59:31;101520.66;;;13.36;82.32
829;BME280;396;52.558;13.188;2023-05-29T01:02:00;101528.53;;;13.37;82.01
829;BME280;396;52.558;13.188;2023-05-29T01:04:27;101525.16;;;13.27;82.66
829;BME280;396;52.558;13.188;2023-05-29T01:06:54;101517.13;;;13.17;83.35
829;BME280;396;52.558;13.188;2023-05-29T01:09:22;101523.34;;;13.17;83.74
829;BME280;396;52.558;13.188;2023-05-29T01:11:55;101529.47;;;13.09;83.88
829;BME280;396;52.558;13.188;2023-05-29T01:14:31;101527.47;;;13.14;83.72
829;BME280;396;52.558;13.188;2023-05-29T01:17:08;101521.38;;;13.04;84.12
829;BME280;396;52.558;13.188;2023-05-29T01:19:58;101530.34;;;13.04;84.03
829;BME280;396;52.558;13.188;2023-05-29T01:22:40;101531.53;;;12.98;84.28
829;BME280;396;52.558;13.188;2023-05-29T01:25:19;101530.28;;;12.91;84.41
829;BME280;396;52.558;13.188;2023-05-29T01:27:47;101529.97;;;12.73;85.04
829;BME280;396;52.558;13.188;2023-05-29T01:30:16;101528.03;;;12.74;85.10
829;BME280;396;52.558;13.188;2023-05-29T01:32:43;101528.50;;;12.62;86.20
829;BME280;396;52.558;13.188;2023-05-29T01:35:10;101525.97;;;12.66;85.62
829;BME280;396;52.558;13.188;2023-05-29T01:37:37;101527.78;;;12.51;86.65
829;BME280;396;52.558;13.188;2023-05-29T01:40:05;101522.59;;;12.55;86.27
829;BME280;396;52.558;13.188;2023-05-29T01:42:32;101529.31;;;12.38;87.38
829;BME280;396;52.558;13.188;2023-05-29T01:45:01;101529.84;;;12.41;87.56
829;BME280;396;52.558;13.188;2023-05-29T01:47:29;101525.88;;;12.52;86.87
829;BME280;396;52.558;13.188;2023-05-29T01:49:56;101535.66;;;12.53;86.75
829;BME280;396;52.558;13.188;2023-05-29T01:52:23;101532.72;;;12.49;86.04
829;BME280;396;52.558;13.188;2023-05-29T01:54:49;101528.25;;;12.34;86.84
829;BME280;396;52.558;13.188;2023-05-29T01:57:16;101532.63;;;12.35;86.11
829;BME280;396;52.558;13.188;2023-05-29T01:59:43;101531.84;;;12.30;84.14
829;BME280;396;52.558;13.188;2023-05-29T02:02:11;101534.34;;;12.26;83.30
829;BME280;396;52.558;13.188;2023-05-29T02:04:38;101535.59;;;12.10;82.59
829;BME280;396;52.558;13.188;2023-05-29T02:07:04;101538.31;;;12.10;80.45
829;BME280;396;52.558;13.188;2023-05-29T02:09:31;101538.44;;;12.00;83.42
829;BME280;396;52.558;13.188;2023-05-29T02:11:58;101545.22;;;11.97;84.70
829;BME280;396;52.558;13.188;2023-05-29T02:14:24;101544.94;;;11.99;85.29
829;BME280;396;52.558;13.188;2023-05-29T02:16:51;101548.28;;;11.91;86.42
829;BME280;396;52.558;13.188;2023-05-29T02:19:19;101544.06;;;11.74;87.89
829;BME280;396;52.558;13.188;2023-05-29T02:21:47;101549.53;;;11.69;88.33
829;BME280;396;52.558;13.188;2023-05-29T02:24:14;101550.00;;;11.76;88.25
829;BME280;396;52.558;13.188;2023-05-29T02:26:40;101545.47;;;11.67;88.92
829;BME280;396;52.558;13.188;2023-05-29T02:29:07;101548.72;;;11.69;88.17
829;BME280;396;52.558;13.188;2023-05-29T02:31:34;101547.63;;;11.70;87.85
829;BME280;396;52.558;13.188;2023-05-29T02:34:00;101547.34;;;11.71;88.44
829;BME280;396;52.558;13.188;2023-05-29T02:36:28;101544.19;;;11.59;89.31
829;BME280;396;52.558;13.188;2023-05-29T02:38:55;101545.81;;;11.60;89.07
829;BME280;396;52.558;13.188;2023-05-29T02:41:21;101544.97;;;11.65;88.16
829;BME280;396;52.558;13.188;2023-05-29T02:43:48;101550.84;;;11.43;89.34
829;BME280;396;52.558;13.188;2023-05-29T02:46:15;101548.13;;;11.43;89.92
829;BME280;396;52.558;13.188;2023-05-29T02:48:41;101546.59;;;11.26;90.93
829;BME280;396;52.558;13.188;2023-05-29T02:51:08;101545.59;;;11.17;91.26
829;BME280;396;52.558;13.188;2023-05-29T02:53:36;101556.41;;;11.22;91.31
829;BME280;396;52.558;13.188;2023-05-29T02:56:03;101558.22;;;11.32;90.52
829;BME280;396;52.558;13.188;2023-05-29T02:58:29;101552.00;;;11.31;90.72
829;BME280;396;52.558;13.188;2023-05-29T03:00:56;101563.84;;;11.41;90.22
829;BME280;396;52.558;13.188;2023-05-29T03:03:23;101557.31;;;11.47;89.94
829;BME280;396;52.558;13.188;2023-05-29T03:05:50;101567.91;;;11.43;90.35
829;BME280;396;52.558;13.188;2023-05-29T03:08:16;101556.25;;;11.43;90.65
829;BME280;396;52.558;13.188;2023-05-29T03:10:45;101566.00;;;11.44;90.39
829;BME280;396;52.558;13.188;2023-05-29T03:13:12;101565.63;;;11.21;91.56
829;BME280;396;52.558;13.188;2023-05-29T03:15:39;101557.47;;;11.26;91.63
829;BME280;396;52.558;13.188;2023-05-29T03:18:05;101565.63;;;11.21;92.12
829;BME280;396;52.558;13.188;2023-05-29T03:20:32;101562.88;;;11.26;91.58
829;BME280;396;52.558;13.188;2023-05-29T03:22:58;101564.53;;;11.22;92.31
829;BME280;396;52.558;13.188;2023-05-29T03:25:25;101562.34;;;11.24;90.79
829;BME280;396;52.558;13.188;2023-05-29T03:27:53;101560.75;;;11.18;88.45
829;BME280;396;52.558;13.188;2023-05-29T03:30:20;101565.09;;;11.19;87.51
829;BME280;396;52.558;13.188;2023-05-29T03:32:46;101565.66;;;11.11;87.78
829;BME280;396;52.558;13.188;2023-05-29T03:35:13;101564.31;;;11.14;87.73
829;BME280;396;52.558;13.188;2023-05-29T03:37:40;101564.81;;;11.21;87.28
829;BME280;396;52.558;13.188;2023-05-29T03:40:07;101571.09;;;11.16;90.85
829;BME280;396;52.558;13.188;2023-05-29T03:42:34;101566.44;;;11.22;91.67
829;BME280;396;52.558;13.188;2023-05-29T03:45:02;101568.81;;;11.33;91.99
829;BME280;396;52.558;13.188;2023-05-29T03:47:29;101569.31;;;11.35;92.43
829;BME280;396;52.558;13.188;2023-05-29T03:49:55;101574.47;;;11.37;92.30
829;BME280;396;52.558;13.188;2023-05-29T03:52:22;101572.47;;;11.53;91.84
829;BME280;396;52.558;13.188;2023-05-29T03:54:48;101575.69;;;11.55;91.73
829;BME280;396;52.558;13.188;2023-05-29T03:57:15;101582.66;;;11.66;91.31
829;BME280;396;52.558;13.188;2023-05-29T03:59:41;101573.91;;;11.74;90.98
829;BME280;396;52.558;13.188;2023-05-29T04:02:09;101571.16;;;11.79;91.34
829;BME280;396;52.558;13.188;2023-05-29T04:04:36;101578.19;;;11.80;91.98
829;BME280;396;52.558;13.188;2023-05-29T04:07:05;101574.91;;;11.89;92.02
829;BME280;396;52.558;13.188;2023-05-29T04:09:32;101578.06;;;12.01;91.03
829;BME280;396;52.558;13.188;2023-05-29T04:11:59;101578.53;;;12.08;91.19
829;BME280;396;52.558;13.188;2023-05-29T04:14:27;101582.22;;;12.17;90.91
829;BME280;396;52.558;13.188;2023-05-29T04:16:54;101580.28;;;12.23;90.73
829;BME280;396;52.558;13.188;2023-05-29T04:19:22;101579.13;;;12.29;90.55
829;BME280;396;52.558;13.188;2023-05-29T04:21:48;101590.13;;;12.43;89.86
829;BME280;396;52.558;13.188;2023-05-29T04:24:16;101592.63;;;12.63;89.32
829;BME280;396;52.558;13.188;2023-05-29T04:26:42;101593.03;;;12.75;88.83
829;BME280;396;52.558;13.188;2023-05-29T04:29:09;101598.78;;;12.93;88.12
829;BME280;396;52.558;13.188;2023-05-29T04:31:38;101594.19;;;12.88;88.29
829;BME280;396;52.558;13.188;2023-05-29T04:34:05;101597.63;;;12.99;87.62
829;BME280;396;52.558;13.188;2023-05-29T04:36:33;101602.09;;;13.08;86.78
829;BME280;396;52.558;13.188;2023-05-29T04:39:04;101598.97;;;13.20;86.74
829;BME280;396;52.558;13.188;2023-05-29T04:41:30;101589.88;;;13.30;86.17
829;BME280;396;52.558;13.188;2023-05-29T04:43:57;101587.88;;;13.35;85.84
829;BME280;396;52.558;13.188;2023-05-29T04:46:24;101585.81;;;13.46;85.39
829;BME280;396;52.558;13.188;2023-05-29T04:48:51;101593.38;;;13.49;85.38
829;BME280;396;52.558;13.188;2023-05-29T04:51:19;101597.56;;;13.60;85.25
829;BME280;396;52.558;13.188;2023-05-29T04:53:48;101602.44;;;13.63;84.33
829;BME280;396;52.558;13.188;2023-05-29T04:56:15;101592.75;;;13.71;83.47
829;BME280;396;52.558;13.188;2023-05-29T04:58:43;101599.81;;;13.72;82.64
829;BME280;396;52.558;13.188;2023-05-29T05:01:09;101604.09;;;13.78;82.76
829;BME280;396;52.558;13.188;2023-05-29T05:03:39;101599.81;;;13.72;82.96
829;BME280;396;52.558;13.188;2023-05-29T05:06:06;101601.47;;;13.73;83.23
829;BME280;396;52.558;13.188;2023-05-29T05:08:33;101599.22;;;13.75;83.40
829;BME280;396;52.558;13.188;2023-05-29T05:11:01;101606.00;;;13.78;84.11
829;BME280;396;52.558;13.188;2023-05-29T05:13:28;101599.75;;;13.77;84.13
829;BME280;396;52.558;13.188;2023-05-29T05:15:54;101604.59;;;13.80;83.26
829;BME280;396;52.558;13.188;2023-05-29T05:18:21;101609.09;;;13.90;83.21
829;BME280;396;52.558;13.188;2023-05-29T05:20:47;101602.34;;;14.01;82.04
829;BME280;396;52.558;13.188;2023-05-29T05:23:14;101603.56;;;14.09;82.29
829;BME280;396;52.558;13.188;2023-05-29T05:25:41;101608.84;;;14.19;82.77
829;BME280;396;52.558;13.188;2023-05-29T05:28:09;101602.38;;;14.29;82.48
829;BME280;396;52.558;13.188;2023-05-29T05:30:36;101600.41;;;14.34;82.50
829;BME280;396;52.558;13.188;2023-05-29T05:33:02;101606.25;;;14.42;83.31
829;BME280;396;52.558;13.188;2023-05-29T05:35:29;101610.56;;;14.43;82.05
829;BME280;396;52.558;13.188;2023-05-29T05:37:56;101608.31;;;14.50;81.59
829;BME280;396;52.558;13.188;2023-05-29T05:40:24;101610.72;;;14.51;81.31
829;BME280;396;52.558;13.188;2023-05-29T05:42:50;101616.28;;;14.60;81.68
829;BME280;396;52.558;13.188;2023-05-29T05:45:19;101609.91;;;14.64;79.80
829;BME280;396;52.558;13.188;2023-05-29T05:47:45;101611.03;;;14.63;79.46
829;BME280;396;52.558;13.188;2023-05-29T05:50:12;101612.25;;;14.71;79.54
829;BME280;396;52.558;13.188;2023-05-29T05:52:39;101619.31;;;14.86;78.87
829;BME280;396;52.558;13.188;2023-05-29T05:55:06;101615.56;;;14.96;78.66
829;BME280;396;52.558;13.188;2023-05-29T05:57:33;101616.97;;;15.07;78.40
829;BME280;396;52.558;13.188;2023-05-29T06:00:01;101619.09;;;15.10;77.73
829;BME280;396;52.558;13.188;2023-05-29T06:02:31;101626.44;;;15.23;76.16
829;BME280;396;52.558;13.188;2023-05-29T06:04:58;101625.59;;;15.36;76.19
829;BME280;396;52.558;13.188;2023-05-29T06:07:24;101627.16;;;15.51;75.52
829;BME280;396;52.558;13.188;2023-05-29T06:09:51;101630.16;;;15.63;74.37
829;BME280;396;52.558;13.188;2023-05-29T06:12:17;101629.47;;;15.72;74.46
829;BME280;396;52.558;13.188;2023-05-29T06:14:44;101633.34;;;15.79;74.59
829;BME280;396;52.558;13.188;2023-05-29T06:17:11;101639.53;;;15.85;74.53
829;BME280;396;52.558;13.188;2023-05-29T06:19:39;101636.00;;;15.93;71.63
829;BME280;396;52.558;13.188;2023-05-29T06:22:06;101642.78;;;15.96;71.90
829;BME280;396;52.558;13.188;2023-05-29T06:24:32;101640.13;;;16.04;72.58
829;BME280;396;52.558;13.188;2023-05-29T06:26:59;101642.91;;;16.13;71.82
829;BME280;396;52.558;13.188;2023-05-29T06:29:26;101645.38;;;16.23;71.31
829;BME280;396;52.558;13.188;2023-05-29T06:31:53;101652.34;;;16.29;70.12
829;BME280;396;52.558;13.188;2023-05-29T06:34:19;101654.78;;;16.39;68.43
829;BME280;396;52.558;13.188;2023-05-29T06:36:47;101658.84;;;16.51;67.00
829;BME280;396;52.558;13.188;2023-05-29T06:39:14;101662.00;;;16.67;66.83
829;BME280;396;52.558;13.188;2023-05-29T06:41:43;101666.41;;;16.76;67.04
829;BME280;396;52.558;13.188;2023-05-29T06:44:09;101667.06;;;16.82;64.24
829;BME280;396;52.558;13.188;2023-05-29T06:46:36;101671.91;;;16.85;65.07
829;BME280;396;52.558;13.188;2023-05-29T06:49:03;101668.22;;;16.89;64.13
829;BME280;396;52.558;13.188;2023-05-29T06:51:29;101660.38;;;16.97;64.52
829;BME280;396;52.558;13.188;2023-05-29T06:53:59;101663.94;;;17.06;63.66
829;BME280;396;52.558;13.188;2023-05-29T06:56:25;101666.16;;;17.04;62.73
829;BME280;396;52.558;13.188;2023-05-29T06:58:52;101664.41;;;17.08;62.20
829;BME280;396;52.558;13.188;2023-05-29T07:01:19;101673.16;;;17.19;61.68
829;BME280;396;52.558;13.188;2023-05-29T07:03:46;101666.06;;;17.26;61.95
829;BME280;396;52.558;13.188;2023-05-29T07:06:12;101666.91;;;17.35;62.62
829;BME280;396;52.558;13.188;2023-05-29T07:08:39;101670.47;;;17.45;62.56
829;BME280;396;52.558;13.188;2023-05-29T07:11:07;101670.59;;;17.48;62.53
829;BME280;396;52.558;13.188;2023-05-29T07:13:34;101668.66;;;17.57;63.08
829;BME280;396;52.558;13.188;2023-05-29T07:16:01;101678.81;;;17.65;62.36
829;BME280;396;52.558;13.188;2023-05-29T07:18:28;101675.81;;;17.76;62.58
829;BME280;396;52.558;13.188;2023-05-29T07:20:56;101680.63;;;17.87;62.89
829;BME280;396;52.558;13.188;2023-05-29T07:23:24;101674.50;;;17.90;61.50
829;BME280;396;52.558;13.188;2023-05-29T07:25:50;101680.31;;;17.89;59.46
829;BME280;396;52.558;13.188;2023-05-29T07:28:18;101679.00;;;18.04;60.20
829;BME280;396;52.558;13.188;2023-05-29T07:30:45;101678.03;;;18.17;59.69
829;BME280;396;52.558;13.188;2023-05-29T07:33:11;101679.31;;;18.28;59.04
829;BME280;396;52.558;13.188;2023-05-29T07:35:38;101684.91;;;18.40;58.87
829;BME280;396;52.558;13.188;2023-05-29T07:38:05;101679.84;;;18.60;58.19
829;BME280;396;52.558;13.188;2023-05-29T07:40:31;101684.47;;;18.77;56.87
829;BME280;396;52.558;13.188;2023-05-29T07:42:58;101683.59;;;18.94;56.30
829;BME280;396;52.558;13.188;2023-05-29T07:45:26;101686.03;;;18.95;54.38
829;BME280;396;52.558;13.188;2023-05-29T07:47:53;101691.13;;;19.05;55.30
829;BME280;396;52.558;13.188;2023-05-29T07:50:20;101694.28;;;19.16;54.78
829;BME280;396;52.558;13.188;2023-05-29T07:52:46;101691.03;;;19.23;54.30
829;BME280;396;52.558;13.188;2023-05-29T07:55:13;101692.13;;;19.30;54.96
829;BME280;396;52.558;13.188;2023-05-29T07:57:39;101695.53;;;19.27;54.24
829;BME280;396;52.558;13.188;2023-05-29T08:00:07;101701.59;;;19.12;54.00
829;BME280;396;52.558;13.188;2023-05-29T08:02:35;101695.59;;;19.19;55.59
829;BME280;396;52.558;13.188;2023-05-29T08:05:02;101706.13;;;19.37;55.99
829;BME280;396;52.558;13.188;2023-05-29T08:07:29;101697.63;;;19.51;54.95
829;BME280;396;52.558;13.188;2023-05-29T08:09:57;101703.75;;;19.57;53.47
829;BME280;396;52.558;13.188;2023-05-29T08:12:23;101699.91;;;19.49;54.38
829;BME280;396;52.558;13.188;2023-05-29T08:14:50;101694.28;;;19.46;55.80
829;BME280;396;52.558;13.188;2023-05-29T08:17:17;101695.50;;;19.57;55.64
829;BME280;396;52.558;13.188;2023-05-29T08:19:45;101692.06;;;19.60;53.54
829;BME280;396;52.558;13.188;2023-05-29T08:22:13;101693.94;;;19.47;52.54
829;BME280;396;52.558;13.188;2023-05-29T08:24:40;101691.13;;;19.56;52.16
829;BME280;396;52.558;13.188;2023-05-29T08:27:07;101684.84;;;19.55;53.78
829;BME280;396;52.558;13.188;2023-05-29T08:29:33;101686.84;;;19.46;53.32
829;BME280;396;52.558;13.188;2023-05-29T08:32:01;101686.31;;;19.53;53.75
829;BME280;396;52.558;13.188;2023-05-29T08:34:27;101690.38;;;19.47;51.92
829;BME280;396;52.558;13.188;2023-05-29T08:36:55;101686.97;;;19.50;49.34
829;BME280;396;52.558;13.188;2023-05-29T08:39:22;101695.63;;;19.39;50.37
829;BME280;396;52.558;13.188;2023-05-29T08:41:53;101686.44;;;19.35;48.78
829;BME280;396;52.558;13.188;2023-05-29T08:44:23;101684.44;;;19.45;50.33
829;BME280;396;52.558;13.188;2023-05-29T08:46:54;101682.44;;;19.54;51.22
829;BME280;396;52.558;13.188;2023-05-29T08:49:21;101690.00;;;19.57;50.61
829;BME280;396;52.558;13.188;2023-05-29T08:51:50;101688.69;;;19.63;51.83
829;BME280;396;52.558;13.188;2023-05-29T08:54:20;101678.94;;;19.65;52.27
829;BME280;396;52.558;13.188;2023-05-29T08:56:46;101689.63;;;19.67;51.23
829;BME280;396;52.558;13.188;2023-05-29T08:59:14;101678.28;;;19.69;48.73
829;BME280;396;52.558;13.188;2023-05-29T09:01:41;101683.53;;;19.61;49.12
829;BME280;396;52.558;13.188;2023-05-29T09:04:08;101680.72;;;19.70;50.66
829;BME280;396;52.558;13.188;2023-05-29T09:06:36;101684.00;;;19.84;49.58
829;BME280;396;52.558;13.188;2023-05-29T09:09:03;101676.41;;;19.81;49.04
829;BME280;396;52.558;13.188;2023-05-29T09:11:32;101674.25;;;19.87;51.38
829;BME280;396;52.558;13.188;2023-05-29T09:13:59;101679.34;;;19.97;51.36
829;BME280;396;52.558;13.188;2023-05-29T09:16:27;101679.69;;;20.29;49.66
829;BME280;396;52.558;13.188;2023-05-29T09:19:04;101691.00;;;20.60;49.48
829;BME280;396;52.558;13.188;2023-05-29T09:21:32;101695.13;;;20.66;48.64
829;BME280;396;52.558;13.188;2023-05-29T09:24:03;101700.09;;;20.73;46.56
829;BME280;396;52.558;13.188;2023-05-29T09:26:31;101706.50;;;20.77;46.59
829;BME280;396;52.558;13.188;2023-05-29T09:28:58;101693.91;;;20.76;46.26
829;BME280;396;52.558;13.188;2023-05-29T09:31:26;101694.59;;;20.85;45.93
829;BME280;396;52.558;13.188;2023-05-29T09:33:53;101703.88;;;20.81;45.65
829;BME280;396;52.558;13.188;2023-05-29T09:36:21;101711.69;;;20.91;47.03
829;BME280;396;52.558;13.188;2023-05-29T09:38:48;101717.19;;;21.15;46.85
829;BME280;396;52.558;13.188;2023-05-29T09:41:20;101705.13;;;21.20;47.10
829;BME280;396;52.558;13.188;2023-05-29T09:43:49;101700.31;;;21.05;47.17
829;BME280;396;52.558;13.188;2023-05-29T09:46:16;101694.56;;;21.10;47.20
829;BME280;396;52.558;13.188;2023-05-29T09:48:44;101704.19;;;21.28;47.40
829;BME280;396;52.558;13.188;2023-05-29T09:51:19;101710.88;;;21.39;44.09
829;BME280;396;52.558;13.188;2023-05-29T09:53:46;101700.53;;;21.36;44.28
829;BME280;396;52.558;13.188;2023-05-29T09:56:13;101709.03;;;21.07;44.81
829;BME280;396;52.558;13.188;2023-05-29T09:58:42;101686.91;;;20.91;45.93
829;BME280;396;52.558;13.188;2023-05-29T10:01:12;101693.78;;;20.97;46.83
829;BME280;396;52.558;13.188;2023-05-29T10:03:40;101686.31;;;21.10;45.87
829;BME280;396;52.558;13.188;2023-05-29T10:06:10;101690.91;;;21.18;44.83
829;BME280;396;52.558;13.188;2023-05-29T10:08:42;101687.47;;;21.21;44.49
829;BME280;396;52.558;13.188;2023-05-29T10:11:13;101685.97;;;20.99;45.23
829;BME280;396;52.558;13.188;2023-05-29T10:13:42;101691.84;;;20.85;45.29
829;BME280;396;52.558;13.188;2023-05-29T10:16:16;101694.00;;;20.92;43.32
829;BME280;396;52.558;13.188;2023-05-29T10:18:50;101679.88;;;21.06;44.32
829;BME280;396;52.558;13.188;2023-05-29T10:21:18;101677.22;;;21.22;43.84
829;BME280;396;52.558;13.188;2023-05-29T10:23:47;101685.16;;;21.48;43.18
829;BME280;396;52.558;13.188;2023-05-29T10:26:18;101685.59;;;21.78;41.13
829;BME280;396;52.558;13.188;2023-05-29T10:28:50;101693.81;;;22.02;40.94
829;BME280;396;52.558;13.188;2023-05-29T10:31:26;101689.50;;;21.89;40.43
829;BME280;396;52.558;13.188;2023-05-29T10:34:03;101686.47;;;21.94;41.68
829;BME280;396;52.558;13.188;2023-05-29T10:36:37;101690.25;;;21.74;42.62
829;BME280;396;52.558;13.188;2023-05-29T10:39:05;101687.56;;;21.77;44.23
829;BME280;396;52.558;13.188;2023-05-29T10:41:33;101691.06;;;21.62;42.24
829;BME280;396;52.558;13.188;2023-05-29T10:44:39;101681.38;;;21.40;42.36
829;BME280;396;52.558;13.188;2023-05-29T10:47:10;101685.16;;;21.23;42.43
829;BME280;396;52.558;13.188;2023-05-29T10:49:38;101686.53;;;20.92;42.99
829;BME280;396;52.558;13.188;2023-05-29T10:52:05;101687.91;;;21.11;42.46
829;BME280;396;52.558;13.188;2023-05-29T10:54:41;101681.34;;;21.28;43.68
829;BME280;396;52.558;13.188;2023-05-29T10:57:16;101683.22;;;21.36;41.44
829;BME280;396;52.558;13.188;2023-05-29T10:59:44;101670.94;;;21.74;41.26
829;BME280;396;52.558;13.188;2023-05-29T11:02:17;101670.09;;;22.13;40.48
829;BME280;396;52.558;13.188;2023-05-29T11:04:44;101673.78;;;22.49;40.66
829;BME280;396;52.558;13.188;2023-05-29T11:07:33;101676.53;;;22.33;40.99
829;BME280;396;52.558;13.188;2023-05-29T11:10:11;101678.03;;;22.03;40.30
829;BME280;396;52.558;13.188;2023-05-29T11:12:55;101675.25;;;21.87;39.89
829;BME280;396;52.558;13.188;2023-05-29T11:15:24;101681.34;;;21.80;40.27
829;BME280;396;52.558;13.188;2023-05-29T11:17:52;101677.19;;;21.86;39.66
829;BME280;396;52.558;13.188;2023-05-29T11:20:28;101677.28;;;21.90;40.48
829;BME280;396;52.558;13.188;2023-05-29T11:23:02;101668.50;;;22.28;40.32
829;BME280;396;52.558;13.188;2023-05-29T11:25:34;101671.09;;;23.16;39.86
829;BME280;396;52.558;13.188;2023-05-29T11:28:01;101664.16;;;24.00;38.15
829;BME280;396;52.558;13.188;2023-05-29T11:30:29;101667.53;;;24.32;37.86
829;BME280;396;52.558;13.188;2023-05-29T11:33:00;101676.66;;;23.35;38.08
829;BME280;396;52.558;13.188;2023-05-29T11:35:32;101671.19;;;22.72;38.91
829;BME280;396;52.558;13.188;2023-05-29T11:38:01;101659.63;;;22.51;40.24
829;BME280;396;52.558;13.188;2023-05-29T11:40:28;101659.97;;;22.33;40.78
829;BME280;396;52.558;13.188;2023-05-29T11:42:55;101663.69;;;22.25;40.72
829;BME280;396;52.558;13.188;2023-05-29T11:45:22;101667.63;;;22.56;41.86
829;BME280;396;52.558;13.188;2023-05-29T11:47:51;101666.28;;;23.67;39.50
829;BME280;396;52.558;13.188;2023-05-29T11:50:20;101675.47;;;24.79;36.67
829;BME280;396;52.558;13.188;2023-05-29T11:52:47;101678.22;;;24.53;36.95
829;BME280;396;52.558;13.188;2023-05-29T11:55:14;101678.47;;;23.82;37.22
829;BME280;396;52.558;13.188;2023-05-29T11:57:41;101672.09;;;23.08;38.73
829;BME280;396;52.558;13.188;2023-05-29T12:00:12;101666.94;;;23.26;38.55
829;BME280;396;52.558;13.188;2023-05-29T12:02:38;101659.59;;;23.88;38.51
829;BME280;396;52.558;13.188;2023-05-29T12:05:06;101661.13;;;23.66;36.25
829;BME280;396;52.558;13.188;2023-05-29T12:07:35;101657.63;;;23.88;36.86
829;BME280;396;52.558;13.188;2023-05-29T12:10:09;101660.72;;;24.49;35.82
829;BME280;396;52.558;13.188;2023-05-29T12:12:36;101663.63;;;24.82;34.67
829;BME280;396;52.558;13.188;2023-05-29T12:15:02;101665.63;;;25.08;33.72
829;BME280;396;52.558;13.188;2023-05-29T12:17:32;101647.56;;;25.18;34.24
829;BME280;396;52.558;13.188;2023-05-29T12:19:58;101655.78;;;25.11;34.08
829;BME280;396;52.558;13.188;2023-05-29T12:22:32;101660.00;;;25.05;34.04
829;BME280;396;52.558;13.188;2023-05-29T12:25:08;101649.19;;;24.70;34.34
829;BME280;396;52.558;13.188;2023-05-29T12:27:36;101655.50;;;25.20;34.18
829;BME280;396;52.558;13.188;2023-05-29T12:30:07;101658.66;;;25.78;33.65
829;BME280;396;52.558;13.188;2023-05-29T12:32:36;101653.13;;;26.60;34.21
829;BME280;396;52.558;13.188;2023-05-29T12:35:11;101653.00;;;26.97;32.16
829;BME280;396;52.558;13.188;2023-05-29T12:37:42;101662.59;;;27.07;31.99
829;BME280;396;52.558;13.188;2023-05-29T12:40:13;101657.31;;;26.91;32.95
829;BME280;396;52.558;13.188;2023-05-29T12:42:41;101670.28;;;26.28;33.51
829;BME280;396;52.558;13.188;2023-05-29T12:45:08;101666.16;;;26.11;33.89
829;BME280;396;52.558;13.188;2023-05-29T12:47:35;101669.09;;;26.26;33.96
829;BME280;396;52.558;13.188;2023-05-29T12:50:19;101667.19;;;26.37;33.91
829;BME280;396;52.558;13.188;2023-05-29T12:52:46;101659.56;;;26.71;32.41
829;BME280;396;52.558;13.188;2023-05-29T12:55:14;101656.38;;;27.24;32.20
829;BME280;396;52.558;13.188;2023-05-29T12:57:40;101661.00;;;27.79;30.98
829;BME280;396;52.558;13.188;2023-05-29T13:00:11;101649.97;;;28.25;31.43
829;BME280;396;52.558;13.188;2023-05-29T13:02:37;101640.03;;;28.53;31.27
829;BME280;396;52.558;13.188;2023-05-29T13:05:05;101656.34;;;28.76;29.93
829;BME280;396;52.558;13.188;2023-05-29T13:07:32;101651.19;;;28.60;30.26
829;BME280;396;52.558;13.188;2023-05-29T13:09:59;101652.72;;;28.32;29.62
829;BME280;396;52.558;13.188;2023-05-29T13:12:27;101653.97;;;28.53;29.88
829;BME280;396;52.558;13.188;2023-05-29T13:14:54;101643.59;;;28.82;29.33
829;BME280;396;52.558;13.188;2023-05-29T13:17:21;101637.56;;;29.12;29.53
829;BME280;396;52.558;13.188;2023-05-29T13:19:48;101647.94;;;28.86;30.16
829;BME280;396;52.558;13.188;2023-05-29T13:22:14;101631.66;;;28.74;28.99
829;BME280;396;52.558;13.188;2023-05-29T13:24:41;101626.06;;;28.63;29.74
829;BME280;396;52.558;13.188;2023-05-29T13:27:08;101630.44;;;28.32;29.81